This is the latest recevied weather packets stored in our database for station/object TAPIOLA. If no packets are shown the sender has not sent any weather packets the latest 10 day(s).
| Time | Temp. | Humidity | Pressure | Rain* | Wind** | Luminosity | Snow |
|---|---|---|---|---|---|---|---|
| 1778042840 | 4.44° C | 71% | 1011.5 hPa | 0 mm | - | - | - |
| 1778041640 | 3.89° C | 73% | 1011.4 hPa | 0 mm | - | - | - |
| 1778040441 | 3.33° C | 76% | 1011.3 hPa | 0 mm | - | - | - |
| 1778039240 | 2.78° C | 78% | 1011.1 hPa | 0 mm | - | - | - |
| 1778038039 | 2.22° C | 79% | 1010.9 hPa | 0 mm | - | - | - |
| 1778036840 | 1.67° C | 80% | 1010.7 hPa | 0 mm | - | - | - |
| 1778035640 | 1.11° C | 82% | 1010.5 hPa | 0 mm | - | - | - |
| 1778034440 | 1.11° C | 82% | 1010.3 hPa | 0 mm | - | - | - |
| 1778033239 | 1.11° C | 82% | 1010.1 hPa | 0 mm | - | - | - |
| 1778032040 | 1.67° C | 79% | 1010 hPa | 0 mm | - | - | - |
| 1778030839 | 1.67° C | 79% | 1009.9 hPa | 0 mm | - | - | - |
| 1778029640 | 1.67° C | 79% | 1009.8 hPa | 0 mm | - | - | - |
| 1778028439 | 1.67° C | 79% | 1009.5 hPa | 0 mm | - | - | - |
| 1778027239 | 1.67° C | 79% | 1009.4 hPa | 0 mm | - | - | - |
| 1778026039 | 2.22° C | 78% | 1009.4 hPa | 0 mm | - | - | - |
| 1778024839 | 2.22° C | 77% | 1009.2 hPa | 0 mm | - | - | - |
| 1778023639 | 2.78° C | 76% | 1009.1 hPa | 0 mm | - | - | - |
| 1778022439 | 2.78° C | 74% | 1009 hPa | 0 mm | - | - | - |
| 1778021239 | 3.33° C | 72% | 1008.8 hPa | 0 mm | - | - | - |
| 1778020039 | 3.89° C | 70% | 1008.7 hPa | 0 mm | - | - | - |
| 1778018839 | 3.89° C | 69% | 1008.6 hPa | 0 mm | - | - | - |
| 1778017639 | 4.44° C | 66% | 1008.5 hPa | 0 mm | - | - | - |
| 1778016439 | 4.44° C | 63% | 1008.3 hPa | 0 mm | - | - | - |
| 1778015239 | 4.44° C | 62% | 1008.1 hPa | 0 mm | - | - | - |
| 1778014038 | 5° C | 60% | 1007.9 hPa | 0 mm | - | - | - |
* Rain latest hour (hover to see other rain measurements)
** Current wind speed in m/s (hover to see current wind gust speed)